SUR4091 SABE-SBNF
Flight info
| Callsign | SUR4091 |
|---|---|
| Flight time | N/A |
| Altitude | 39000 |
| Route | DORVO8 DORVO UN857 ITBEB UM540 USTUN |
| Aircraft | B737/M-SDE2E3FGHIRWXY/LB1 |
Departure
| Time | 2026-05-06 16:21 |
|---|---|
| Airport | Aeroparque Jorge Newbery (SABE) |
Arrival
| Time | N/A |
|---|---|
| Airport | Ministro Victor Konder International Airport (SBNF) |
| Time | Latitude | Longitude | Altitude | Speed | Heading |
|---|---|---|---|---|---|
| 2026-05-06 15:41 | -34.56117 | -58.41527 | 26 ft | 0 kts | 304° |
| 2026-05-06 16:11 | -34.56119 | -58.41524 | 26 ft | 2 kts | 303° |
| 2026-05-06 16:12 | -34.56129 | -58.41508 | 24 ft | 2 kts | 307° |
| 2026-05-06 16:12 | -34.56139 | -58.41492 | 32 ft | 2 kts | 312° |
| 2026-05-06 16:12 | -34.56151 | -58.41479 | 32 ft | 2 kts | 340° |
| 2026-05-06 16:12 | -34.56166 | -58.41481 | 30 ft | 2 kts | 33° |
| 2026-05-06 16:13 | -34.56182 | -58.41485 | 30 ft | 2 kts | 333° |
| 2026-05-06 16:13 | -34.56195 | -58.41473 | 30 ft | 2 kts | 313° |
| 2026-05-06 16:13 | -34.56205 | -58.41459 | 28 ft | 1 kts | 307° |
| 2026-05-06 16:13 | -34.56206 | -58.41456 | 28 ft | 0 kts | 306° |
| 2026-05-06 16:16 | -34.56206 | -58.41457 | 28 ft | 0 kts | 306° |
| 2026-05-06 16:16 | -34.56185 | -58.41473 | 28 ft | 7 kts | 340° |
| 2026-05-06 16:16 | -34.56129 | -58.41452 | 28 ft | 10 kts | 35° |
| 2026-05-06 16:16 | -34.56074 | -58.41406 | 25 ft | 9 kts | 35° |
| 2026-05-06 16:17 | -34.56020 | -58.41361 | 26 ft | 9 kts | 34° |
| 2026-05-06 16:17 | -34.55968 | -58.41317 | 27 ft | 9 kts | 33° |
| 2026-05-06 16:17 | -34.55916 | -58.41324 | 27 ft | 9 kts | 298° |
| 2026-05-06 16:17 | -34.55886 | -58.41391 | 29 ft | 10 kts | 296° |
| 2026-05-06 16:18 | -34.55851 | -58.41484 | 26 ft | 14 kts | 294° |
| 2026-05-06 16:18 | -34.55809 | -58.41587 | 28 ft | 13 kts | 296° |
| 2026-05-06 16:18 | -34.55768 | -58.41684 | 27 ft | 13 kts | 297° |
| 2026-05-06 16:18 | -34.55720 | -58.41780 | 25 ft | 14 kts | 306° |
| 2026-05-06 16:19 | -34.55663 | -58.41879 | 26 ft | 15 kts | 303° |
| 2026-05-06 16:19 | -34.55602 | -58.41992 | 30 ft | 17 kts | 305° |
| 2026-05-06 16:19 | -34.55527 | -58.42118 | 29 ft | 19 kts | 305° |
| 2026-05-06 16:19 | -34.55451 | -58.42248 | 28 ft | 19 kts | 303° |
| 2026-05-06 16:20 | -34.55385 | -58.42357 | 28 ft | 15 kts | 303° |
| 2026-05-06 16:20 | -34.55365 | -58.42476 | 26 ft | 15 kts | 252° |
| 2026-05-06 16:20 | -34.55431 | -58.42459 | 26 ft | 14 kts | 121° |
| 2026-05-06 16:20 | -34.55487 | -58.42357 | 27 ft | 23 kts | 124° |
| 2026-05-06 16:21 | -34.55714 | -58.41945 | 27 ft | 95 kts | 124° |
| 2026-05-06 16:21 | -34.56200 | -58.41064 | 29 ft | 153 kts | 123° |
| 2026-05-06 16:21 | -34.56839 | -58.39890 | 412 ft | 172 kts | 121° |
| 2026-05-06 16:21 | -34.57494 | -58.38647 | 1083 ft | 179 kts | 119° |
| 2026-05-06 16:22 | -34.58191 | -58.37334 | 1717 ft | 192 kts | 117° |
| 2026-05-06 16:22 | -34.58921 | -58.35915 | 2356 ft | 205 kts | 113° |
| 2026-05-06 16:22 | -34.59237 | -58.34228 | 3020 ft | 203 kts | 74° |
| 2026-05-06 16:22 | -34.58575 | -58.32684 | 3323 ft | 216 kts | 33° |
| 2026-05-06 16:23 | -34.57236 | -58.31798 | 3756 ft | 229 kts | 25° |
| 2026-05-06 16:23 | -34.55860 | -58.30743 | 4456 ft | 238 kts | 28° |
| 2026-05-06 16:23 | -34.54515 | -58.29390 | 4986 ft | 265 kts | 47° |
| 2026-05-06 16:23 | -34.53518 | -58.27547 | 6097 ft | 263 kts | 60° |
| 2026-05-06 16:24 | -34.53269 | -58.25341 | 7230 ft | 269 kts | 94° |
| 2026-05-06 16:24 | -34.53724 | -58.23111 | 8114 ft | 275 kts | 103° |
| 2026-05-06 16:24 | -34.54313 | -58.20891 | 8875 ft | 282 kts | 105° |
| 2026-05-06 16:24 | -34.54940 | -58.18606 | 9710 ft | 286 kts | 105° |
| 2026-05-06 16:25 | -34.55569 | -58.16284 | 10434 ft | 291 kts | 105° |
| 2026-05-06 16:25 | -34.56190 | -58.13943 | 11154 ft | 296 kts | 105° |
| 2026-05-06 16:25 | -34.56818 | -58.11529 | 11893 ft | 301 kts | 105° |
| 2026-05-06 16:25 | -34.57447 | -58.09073 | 12629 ft | 306 kts | 105° |
| 2026-05-06 16:26 | -34.58077 | -58.06589 | 13392 ft | 311 kts | 106° |
| 2026-05-06 16:26 | -34.58714 | -58.04058 | 14108 ft | 315 kts | 106° |
| 2026-05-06 16:26 | -34.59323 | -58.01626 | 14775 ft | 320 kts | 106° |
| 2026-05-06 16:26 | -34.59974 | -57.99017 | 15498 ft | 324 kts | 106° |
| 2026-05-06 16:27 | -34.60629 | -57.96382 | 16201 ft | 329 kts | 106° |
| 2026-05-06 16:27 | -34.61289 | -57.93724 | 16903 ft | 334 kts | 106° |
| 2026-05-06 16:27 | -34.61966 | -57.90990 | 17623 ft | 339 kts | 106° |
| 2026-05-06 16:27 | -34.62650 | -57.88229 | 18311 ft | 343 kts | 106° |
| 2026-05-06 16:28 | -34.63335 | -57.85456 | 18935 ft | 347 kts | 106° |
| 2026-05-06 16:28 | -34.64035 | -57.82621 | 19590 ft | 351 kts | 106° |
| 2026-05-06 16:28 | -34.64740 | -57.79763 | 20243 ft | 355 kts | 106° |
| 2026-05-06 16:28 | -34.65452 | -57.76869 | 20880 ft | 359 kts | 107° |
| 2026-05-06 16:29 | -34.66164 | -57.73978 | 21513 ft | 363 kts | 107° |
| 2026-05-06 16:29 | -34.66891 | -57.71018 | 22149 ft | 367 kts | 107° |
| 2026-05-06 16:29 | -34.67628 | -57.68015 | 22789 ft | 371 kts | 107° |
| 2026-05-06 16:29 | -34.68372 | -57.64980 | 23419 ft | 376 kts | 107° |
| 2026-05-06 16:30 | -34.69115 | -57.61949 | 23948 ft | 379 kts | 107° |
| 2026-05-06 16:30 | -34.69616 | -57.59899 | 24311 ft | 381 kts | 107° |
| 2026-05-06 16:30 | -34.70603 | -57.55752 | 25035 ft | 386 kts | 101° |
| 2026-05-06 16:30 | -34.70696 | -57.52488 | 25506 ft | 386 kts | 76° |
| 2026-05-06 16:31 | -34.69898 | -57.49442 | 26042 ft | 379 kts | 56° |
| 2026-05-06 16:31 | -34.68414 | -57.46844 | 26574 ft | 372 kts | 43° |
| 2026-05-06 16:31 | -34.66748 | -57.44412 | 27083 ft | 375 kts | 42° |
| 2026-05-06 16:31 | -34.65059 | -57.42026 | 27567 ft | 379 kts | 42° |
| 2026-05-06 16:32 | -34.63324 | -57.39582 | 28070 ft | 382 kts | 42° |
| 2026-05-06 16:32 | -34.61584 | -57.37115 | 28595 ft | 386 kts | 42° |
| 2026-05-06 16:32 | -34.59855 | -57.34647 | 29108 ft | 389 kts | 43° |
| 2026-05-06 16:32 | -34.58093 | -57.32115 | 29604 ft | 393 kts | 43° |
| 2026-05-06 16:33 | -34.56317 | -57.29554 | 30076 ft | 397 kts | 43° |
| 2026-05-06 16:33 | -34.54549 | -57.27000 | 30474 ft | 400 kts | 43° |
| 2026-05-06 16:33 | -34.52748 | -57.24398 | 30865 ft | 404 kts | 43° |
| 2026-05-06 16:34 | -34.49119 | -57.19156 | 31637 ft | 410 kts | 43° |
| 2026-05-06 16:34 | -34.47276 | -57.16497 | 32021 ft | 412 kts | 43° |
| 2026-05-06 16:34 | -34.45426 | -57.13830 | 32405 ft | 415 kts | 43° |
| 2026-05-06 16:34 | -34.43556 | -57.11138 | 32765 ft | 417 kts | 43° |
| 2026-05-06 16:35 | -34.41696 | -57.08461 | 33101 ft | 421 kts | 43° |
| 2026-05-06 16:35 | -34.39800 | -57.05735 | 33432 ft | 424 kts | 43° |
| 2026-05-06 16:35 | -34.37891 | -57.02992 | 33769 ft | 426 kts | 43° |
| 2026-05-06 16:35 | -34.35962 | -57.00222 | 34055 ft | 429 kts | 43° |
| 2026-05-06 16:36 | -34.34053 | -56.97483 | 34314 ft | 432 kts | 43° |
| 2026-05-06 16:36 | -34.32102 | -56.94686 | 34574 ft | 434 kts | 43° |
| 2026-05-06 16:36 | -34.30150 | -56.91887 | 34840 ft | 436 kts | 43° |
| 2026-05-06 16:36 | -34.28184 | -56.89072 | 35103 ft | 439 kts | 43° |
| 2026-05-06 16:37 | -34.26207 | -56.86246 | 35357 ft | 441 kts | 43° |
| 2026-05-06 16:37 | -34.24237 | -56.83436 | 35589 ft | 443 kts | 43° |
| 2026-05-06 16:37 | -34.22234 | -56.80583 | 35830 ft | 445 kts | 43° |
| 2026-05-06 16:37 | -34.20238 | -56.77745 | 36055 ft | 447 kts | 43° |
| 2026-05-06 16:38 | -34.18214 | -56.74867 | 36262 ft | 450 kts | 43° |
| 2026-05-06 16:38 | -34.16186 | -56.71986 | 36491 ft | 452 kts | 43° |
| 2026-05-06 16:38 | -34.14142 | -56.69083 | 36713 ft | 454 kts | 43° |
| 2026-05-06 16:38 | -34.12085 | -56.66162 | 36921 ft | 456 kts | 43° |
| 2026-05-06 16:39 | -34.10027 | -56.63243 | 37122 ft | 458 kts | 43° |
| 2026-05-06 16:39 | -34.07984 | -56.60347 | 37319 ft | 460 kts | 43° |
| 2026-05-06 16:39 | -34.05898 | -56.57393 | 37518 ft | 461 kts | 43° |
| 2026-05-06 16:39 | -34.03811 | -56.54438 | 37718 ft | 463 kts | 43° |
| 2026-05-06 16:40 | -34.01716 | -56.51476 | 37892 ft | 465 kts | 43° |
| 2026-05-06 16:40 | -33.99607 | -56.48498 | 38074 ft | 467 kts | 43° |
| 2026-05-06 16:40 | -33.97519 | -56.45549 | 38258 ft | 468 kts | 43° |
| 2026-05-06 16:40 | -33.95398 | -56.42557 | 38435 ft | 470 kts | 43° |
| 2026-05-06 16:41 | -33.93264 | -56.39549 | 38588 ft | 472 kts | 43° |
| 2026-05-06 16:41 | -33.91117 | -56.36525 | 38719 ft | 474 kts | 43° |
| 2026-05-06 16:41 | -33.88992 | -56.33535 | 38849 ft | 474 kts | 43° |
| 2026-05-06 16:42 | -33.84651 | -56.27466 | 38915 ft | 481 kts | 43° |
| 2026-05-06 16:42 | -33.80217 | -56.21296 | 38916 ft | 491 kts | 43° |
| 2026-05-06 16:43 | -33.75708 | -56.15007 | 38916 ft | 500 kts | 43° |
| 2026-05-06 16:43 | -33.71138 | -56.08618 | 38907 ft | 509 kts | 43° |
| 2026-05-06 16:44 | -33.66507 | -56.02148 | 38915 ft | 516 kts | 43° |
| 2026-05-06 16:44 | -33.61792 | -55.95571 | 38916 ft | 520 kts | 43° |
| 2026-05-06 16:45 | -33.57074 | -55.89002 | 38911 ft | 521 kts | 43° |
| 2026-05-06 16:45 | -33.52355 | -55.82447 | 38899 ft | 521 kts | 43° |
| 2026-05-06 16:46 | -33.47610 | -55.75870 | 38897 ft | 520 kts | 43° |
| 2026-05-06 16:46 | -33.42889 | -55.69337 | 38912 ft | 519 kts | 43° |
| 2026-05-06 16:47 | -33.38156 | -55.62801 | 38917 ft | 517 kts | 43° |
| 2026-05-06 16:47 | -33.33465 | -55.56334 | 38916 ft | 515 kts | 43° |
| 2026-05-06 16:48 | -33.28780 | -55.49888 | 38915 ft | 514 kts | 43° |
| 2026-05-06 16:48 | -33.24103 | -55.43465 | 38921 ft | 513 kts | 43° |
| 2026-05-06 16:49 | -33.19426 | -55.37053 | 38930 ft | 513 kts | 43° |
| 2026-05-06 16:49 | -33.14713 | -55.30604 | 38934 ft | 513 kts | 43° |
| 2026-05-06 16:50 | -33.10029 | -55.24206 | 38934 ft | 514 kts | 43° |
| 2026-05-06 16:50 | -33.05333 | -55.17802 | 38933 ft | 515 kts | 43° |
| 2026-05-06 16:51 | -33.00590 | -55.11344 | 38938 ft | 516 kts | 43° |
| 2026-05-06 16:51 | -32.95878 | -55.04940 | 38939 ft | 516 kts | 43° |
| 2026-05-06 16:52 | -32.91142 | -54.98515 | 38944 ft | 516 kts | 43° |
| 2026-05-06 16:52 | -32.86389 | -54.92078 | 38938 ft | 516 kts | 43° |
| 2026-05-06 16:53 | -32.81667 | -54.85693 | 38938 ft | 515 kts | 43° |
| 2026-05-06 16:53 | -32.76919 | -54.79286 | 38943 ft | 514 kts | 43° |
| 2026-05-06 16:54 | -32.72220 | -54.72956 | 38937 ft | 513 kts | 43° |
| 2026-05-06 16:54 | -32.67514 | -54.66627 | 38950 ft | 511 kts | 43° |
| 2026-05-06 16:55 | -32.62804 | -54.60304 | 38945 ft | 510 kts | 43° |
| 2026-05-06 16:55 | -32.58116 | -54.54021 | 38957 ft | 509 kts | 43° |
| 2026-05-06 16:56 | -32.54197 | -54.48777 | 38956 ft | 509 kts | 43° |
| 2026-05-06 16:56 | -32.49504 | -54.42507 | 38958 ft | 509 kts | 44° |
| 2026-05-06 16:57 | -32.44796 | -54.36227 | 38965 ft | 508 kts | 44° |
| 2026-05-06 16:57 | -32.40351 | -54.30307 | 38964 ft | 507 kts | 44° |
| 2026-05-06 16:58 | -32.35638 | -54.24040 | 38964 ft | 507 kts | 44° |
| 2026-05-06 16:58 | -32.30985 | -54.17812 | 38967 ft | 508 kts | 44° |
| 2026-05-06 16:59 | -32.26366 | -54.11531 | 38970 ft | 508 kts | 45° |
| 2026-05-06 16:59 | -32.21703 | -54.05198 | 38962 ft | 509 kts | 45° |
| 2026-05-06 17:00 | -32.17066 | -53.98929 | 38966 ft | 509 kts | 45° |
| 2026-05-06 17:00 | -32.12382 | -53.92611 | 38961 ft | 510 kts | 45° |
| 2026-05-06 17:01 | -32.07726 | -53.86339 | 38958 ft | 510 kts | 45° |
| 2026-05-06 17:01 | -32.03043 | -53.80048 | 38964 ft | 510 kts | 45° |
| 2026-05-06 17:02 | -31.98375 | -53.73798 | 38969 ft | 510 kts | 45° |
| 2026-05-06 17:02 | -31.93672 | -53.67509 | 38974 ft | 510 kts | 45° |
| 2026-05-06 17:03 | -31.89001 | -53.61271 | 38972 ft | 510 kts | 45° |
| 2026-05-06 17:03 | -31.84313 | -53.55018 | 38980 ft | 510 kts | 45° |
| 2026-05-06 17:04 | -31.79599 | -53.48742 | 38984 ft | 510 kts | 44° |
| 2026-05-06 17:04 | -31.74910 | -53.42510 | 38984 ft | 511 kts | 45° |
| 2026-05-06 17:05 | -31.70198 | -53.36258 | 38991 ft | 510 kts | 45° |
| 2026-05-06 17:05 | -31.65474 | -53.29999 | 38997 ft | 512 kts | 45° |
| 2026-05-06 17:06 | -31.60733 | -53.23732 | 39006 ft | 518 kts | 45° |
| 2026-05-06 17:06 | -31.55928 | -53.17388 | 38993 ft | 520 kts | 45° |
| 2026-05-06 17:07 | -31.51137 | -53.11072 | 39000 ft | 521 kts | 45° |
| 2026-05-06 17:07 | -31.46303 | -53.04710 | 38994 ft | 521 kts | 45° |
| 2026-05-06 17:08 | -31.41509 | -52.98411 | 38999 ft | 520 kts | 45° |
| 2026-05-06 17:08 | -31.36705 | -52.92109 | 39000 ft | 519 kts | 45° |
| 2026-05-06 17:09 | -31.31895 | -52.85809 | 39007 ft | 519 kts | 45° |
| 2026-05-06 17:09 | -31.27098 | -52.79532 | 39006 ft | 519 kts | 45° |
| 2026-05-06 17:10 | -31.22278 | -52.73230 | 39012 ft | 518 kts | 45° |
| 2026-05-06 17:10 | -31.17480 | -52.66981 | 39011 ft | 519 kts | 45° |
| 2026-05-06 17:11 | -31.12653 | -52.60708 | 39016 ft | 519 kts | 45° |
| 2026-05-06 17:11 | -31.07808 | -52.54417 | 39018 ft | 519 kts | 45° |
| 2026-05-06 17:12 | -31.02992 | -52.48173 | 39014 ft | 520 kts | 45° |
| 2026-05-06 17:12 | -30.98160 | -52.41917 | 39012 ft | 520 kts | 45° |
| 2026-05-06 17:13 | -30.93298 | -52.35631 | 39019 ft | 521 kts | 45° |
| 2026-05-06 17:13 | -30.88457 | -52.29392 | 39017 ft | 521 kts | 44° |
| 2026-05-06 17:14 | -30.83516 | -52.23207 | 39026 ft | 521 kts | 44° |
| 2026-05-06 17:14 | -30.78566 | -52.17068 | 39020 ft | 521 kts | 44° |
| 2026-05-06 17:15 | -30.73635 | -52.10928 | 39033 ft | 521 kts | 44° |
| 2026-05-06 17:15 | -30.68696 | -52.04781 | 39027 ft | 522 kts | 44° |
| 2026-05-06 17:16 | -30.63717 | -51.98597 | 39028 ft | 522 kts | 44° |
| 2026-05-06 17:16 | -30.58747 | -51.92430 | 39031 ft | 522 kts | 44° |
| 2026-05-06 17:17 | -30.53796 | -51.86295 | 39027 ft | 522 kts | 44° |
| 2026-05-06 17:17 | -30.48818 | -51.80135 | 39022 ft | 522 kts | 44° |
| 2026-05-06 17:18 | -30.43860 | -51.74002 | 39028 ft | 523 kts | 45° |
| 2026-05-06 17:18 | -30.38988 | -51.67704 | 39026 ft | 523 kts | 46° |
| 2026-05-06 17:19 | -30.34207 | -51.61398 | 39020 ft | 523 kts | 46° |
| 2026-05-06 17:19 | -30.29390 | -51.55086 | 39004 ft | 523 kts | 46° |
| 2026-05-06 17:20 | -30.24543 | -51.48782 | 39017 ft | 523 kts | 46° |
| 2026-05-06 17:20 | -30.19726 | -51.42536 | 39009 ft | 523 kts | 46° |
| 2026-05-06 17:21 | -30.14861 | -51.36234 | 39004 ft | 523 kts | 46° |
| 2026-05-06 17:21 | -30.12423 | -51.33078 | 38882 ft | 525 kts | 45° |
| 2026-05-06 17:21 | -30.10008 | -51.29957 | 38909 ft | 528 kts | 45° |
| 2026-05-06 17:22 | -30.05072 | -51.23579 | 38998 ft | 535 kts | 45° |
| 2026-05-06 17:22 | -30.00085 | -51.17146 | 39004 ft | 543 kts | 45° |
| 2026-05-06 17:23 | -29.94997 | -51.10611 | 39000 ft | 547 kts | 45° |
| 2026-05-06 17:23 | -29.89918 | -51.04113 | 38995 ft | 548 kts | 45° |
| 2026-05-06 17:24 | -29.84790 | -50.97558 | 39005 ft | 548 kts | 45° |
| 2026-05-06 17:24 | -29.79702 | -50.91062 | 39009 ft | 547 kts | 45° |
| 2026-05-06 17:25 | -29.74617 | -50.84580 | 39016 ft | 546 kts | 45° |
| 2026-05-06 17:25 | -29.69511 | -50.78081 | 39022 ft | 545 kts | 45° |
| 2026-05-06 17:26 | -29.64447 | -50.71646 | 39043 ft | 544 kts | 45° |
| 2026-05-06 17:26 | -29.59355 | -50.65185 | 39045 ft | 544 kts | 45° |
| 2026-05-06 17:27 | -29.54296 | -50.58777 | 39049 ft | 543 kts | 45° |
| 2026-05-06 17:27 | -29.48724 | -50.53022 | 39072 ft | 535 kts | 33° |
| 2026-05-06 17:28 | -29.42715 | -50.47959 | 39080 ft | 534 kts | 32° |
| 2026-05-06 17:28 | -29.36690 | -50.42919 | 39080 ft | 536 kts | 32° |
| 2026-05-06 17:29 | -29.30727 | -50.37846 | 39084 ft | 536 kts | 33° |
| 2026-05-06 17:29 | -29.24745 | -50.32717 | 39095 ft | 537 kts | 33° |
| 2026-05-06 17:30 | -29.18776 | -50.27604 | 39100 ft | 537 kts | 33° |
| 2026-05-06 17:30 | -29.12768 | -50.22472 | 39098 ft | 538 kts | 33° |
| 2026-05-06 17:31 | -29.06794 | -50.17381 | 39096 ft | 539 kts | 33° |
| 2026-05-06 17:31 | -29.00779 | -50.12262 | 39102 ft | 539 kts | 33° |
| 2026-05-06 17:32 | -28.94751 | -50.07138 | 39099 ft | 539 kts | 33° |
| 2026-05-06 17:32 | -28.88714 | -50.02015 | 39095 ft | 540 kts | 33° |
| 2026-05-06 17:33 | -28.82709 | -49.96927 | 39103 ft | 540 kts | 33° |
| 2026-05-06 17:33 | -28.76671 | -49.91817 | 39123 ft | 537 kts | 33° |
| 2026-05-06 17:34 | -28.70686 | -49.86759 | 39091 ft | 538 kts | 33° |
| 2026-05-06 17:34 | -28.64651 | -49.81670 | 39102 ft | 539 kts | 33° |
| 2026-05-06 17:35 | -28.58655 | -49.76615 | 39111 ft | 539 kts | 33° |
| 2026-05-06 17:35 | -28.52715 | -49.71608 | 39085 ft | 517 kts | 33° |
| 2026-05-06 17:36 | -28.47075 | -49.66863 | 39086 ft | 489 kts | 33° |
| 2026-05-06 17:36 | -28.44406 | -49.64622 | 39088 ft | 475 kts | 33° |
| 2026-05-06 17:36 | -28.41781 | -49.62420 | 39090 ft | 464 kts | 33° |
| 2026-05-06 17:36 | -28.39185 | -49.60247 | 39120 ft | 462 kts | 33° |
| 2026-05-06 17:37 | -28.36565 | -49.58057 | 39004 ft | 470 kts | 33° |
| 2026-05-06 17:37 | -28.33936 | -49.55862 | 38555 ft | 475 kts | 33° |
| 2026-05-06 17:37 | -28.31254 | -49.53620 | 37721 ft | 484 kts | 33° |